sensor_id;sensor_type;location;lat;lon;timestamp;temperature;humidity
18948;DHT22;9607;51.600;7.558;2022-11-11T00:01:43;9.00;99.90
18948;DHT22;9607;51.600;7.558;2022-11-11T00:04:09;9.00;99.90
18948;DHT22;9607;51.600;7.558;2022-11-11T00:06:37;9.00;99.90
18948;DHT22;9607;51.600;7.558;2022-11-11T00:09:04;8.90;99.90
18948;DHT22;9607;51.600;7.558;2022-11-11T00:11:32;8.90;99.90
18948;DHT22;9607;51.600;7.558;2022-11-11T00:13:59;8.80;99.90
18948;DHT22;9607;51.600;7.558;2022-11-11T00:16:26;8.80;99.90
18948;DHT22;9607;51.600;7.558;2022-11-11T00:19:13;8.70;99.90
18948;DHT22;9607;51.600;7.558;2022-11-11T00:21:59;8.70;99.90
18948;DHT22;9607;51.600;7.558;2022-11-11T00:24:43;8.70;99.90
18948;DHT22;9607;51.600;7.558;2022-11-11T00:27:27;8.70;99.90
18948;DHT22;9607;51.600;7.558;2022-11-11T00:29:54;8.70;99.90
18948;DHT22;9607;51.600;7.558;2022-11-11T00:32:21;8.70;99.90
18948;DHT22;9607;51.600;7.558;2022-11-11T00:34:54;8.70;99.90
18948;DHT22;9607;51.600;7.558;2022-11-11T00:37:40;8.80;99.90
18948;DHT22;9607;51.600;7.558;2022-11-11T00:40:09;8.80;99.90
18948;DHT22;9607;51.600;7.558;2022-11-11T00:42:36;8.90;99.90
18948;DHT22;9607;51.600;7.558;2022-11-11T00:45:04;8.90;99.90
18948;DHT22;9607;51.600;7.558;2022-11-11T00:47:31;8.90;99.90
18948;DHT22;9607;51.600;7.558;2022-11-11T00:50:17;8.90;99.90
18948;DHT22;9607;51.600;7.558;2022-11-11T00:53:08;8.90;99.90
18948;DHT22;9607;51.600;7.558;2022-11-11T00:55:35;8.90;99.90
18948;DHT22;9607;51.600;7.558;2022-11-11T00:58:02;9.00;99.90
18948;DHT22;9607;51.600;7.558;2022-11-11T01:00:29;8.90;99.90
18948;DHT22;9607;51.600;7.558;2022-11-11T01:02:57;8.90;99.90
18948;DHT22;9607;51.600;7.558;2022-11-11T01:05:23;8.90;99.90
18948;DHT22;9607;51.600;7.558;2022-11-11T01:07:50;8.90;99.90
18948;DHT22;9607;51.600;7.558;2022-11-11T01:10:19;8.80;99.90
18948;DHT22;9607;51.600;7.558;2022-11-11T01:13:00;8.70;99.90
18948;DHT22;9607;51.600;7.558;2022-11-11T01:15:37;8.80;99.90
18948;DHT22;9607;51.600;7.558;2022-11-11T01:18:04;8.70;99.90
18948;DHT22;9607;51.600;7.558;2022-11-11T01:20:31;8.70;99.90
18948;DHT22;9607;51.600;7.558;2022-11-11T01:22:58;8.60;99.90
18948;DHT22;9607;51.600;7.558;2022-11-11T01:25:26;8.60;99.90
18948;DHT22;9607;51.600;7.558;2022-11-11T01:27:52;8.60;99.90
18948;DHT22;9607;51.600;7.558;2022-11-11T01:30:19;8.60;99.90
18948;DHT22;9607;51.600;7.558;2022-11-11T01:32:46;8.60;99.90
18948;DHT22;9607;51.600;7.558;2022-11-11T01:35:13;8.60;99.90
18948;DHT22;9607;51.600;7.558;2022-11-11T01:37:39;8.60;99.90
18948;DHT22;9607;51.600;7.558;2022-11-11T01:40:08;8.70;99.90
18948;DHT22;9607;51.600;7.558;2022-11-11T01:42:47;8.80;99.90
18948;DHT22;9607;51.600;7.558;2022-11-11T01:45:45;8.80;99.90
18948;DHT22;9607;51.600;7.558;2022-11-11T01:48:16;8.80;99.90
18948;DHT22;9607;51.600;7.558;2022-11-11T01:51:02;8.90;99.90
18948;DHT22;9607;51.600;7.558;2022-11-11T01:53:31;9.00;99.90
18948;DHT22;9607;51.600;7.558;2022-11-11T01:55:58;9.00;99.90
18948;DHT22;9607;51.600;7.558;2022-11-11T01:58:28;9.00;99.90
18948;DHT22;9607;51.600;7.558;2022-11-11T02:00:56;9.00;99.90
18948;DHT22;9607;51.600;7.558;2022-11-11T02:03:24;9.10;99.90
18948;DHT22;9607;51.600;7.558;2022-11-11T02:05:52;9.10;99.90
18948;DHT22;9607;51.600;7.558;2022-11-11T02:08:23;9.20;99.90
18948;DHT22;9607;51.600;7.558;2022-11-11T02:11:00;9.20;99.90
18948;DHT22;9607;51.600;7.558;2022-11-11T02:13:29;9.30;99.90
18948;DHT22;9607;51.600;7.558;2022-11-11T02:16:14;9.30;99.90
18948;DHT22;9607;51.600;7.558;2022-11-11T02:18:42;9.30;99.90
18948;DHT22;9607;51.600;7.558;2022-11-11T02:21:10;9.30;99.90
18948;DHT22;9607;51.600;7.558;2022-11-11T02:23:43;9.30;99.90
18948;DHT22;9607;51.600;7.558;2022-11-11T02:26:14;9.30;99.90
18948;DHT22;9607;51.600;7.558;2022-11-11T02:28:42;9.20;99.90
18948;DHT22;9607;51.600;7.558;2022-11-11T02:31:09;9.20;99.90
18948;DHT22;9607;51.600;7.558;2022-11-11T02:33:37;9.30;99.90
18948;DHT22;9607;51.600;7.558;2022-11-11T02:36:05;9.30;99.90
18948;DHT22;9607;51.600;7.558;2022-11-11T02:38:37;9.30;99.90
18948;DHT22;9607;51.600;7.558;2022-11-11T02:41:04;9.30;99.90
18948;DHT22;9607;51.600;7.558;2022-11-11T02:43:50;9.30;99.90
18948;DHT22;9607;51.600;7.558;2022-11-11T02:46:17;9.30;99.90
18948;DHT22;9607;51.600;7.558;2022-11-11T02:48:44;9.30;99.90
18948;DHT22;9607;51.600;7.558;2022-11-11T02:51:10;9.30;99.90
18948;DHT22;9607;51.600;7.558;2022-11-11T02:53:37;9.30;99.90
18948;DHT22;9607;51.600;7.558;2022-11-11T02:56:04;9.30;99.90
18948;DHT22;9607;51.600;7.558;2022-11-11T02:58:32;9.30;99.90
18948;DHT22;9607;51.600;7.558;2022-11-11T03:01:00;9.30;99.90
18948;DHT22;9607;51.600;7.558;2022-11-11T03:03:26;9.30;99.90
18948;DHT22;9607;51.600;7.558;2022-11-11T03:05:53;9.30;99.90
18948;DHT22;9607;51.600;7.558;2022-11-11T03:08:20;9.30;99.90
18948;DHT22;9607;51.600;7.558;2022-11-11T03:10:47;9.30;99.90
18948;DHT22;9607;51.600;7.558;2022-11-11T03:13:14;9.20;99.90
18948;DHT22;9607;51.600;7.558;2022-11-11T03:15:41;9.20;99.90
18948;DHT22;9607;51.600;7.558;2022-11-11T03:18:09;9.10;99.90
18948;DHT22;9607;51.600;7.558;2022-11-11T03:20:35;9.10;99.90
18948;DHT22;9607;51.600;7.558;2022-11-11T03:23:34;9.10;99.90
18948;DHT22;9607;51.600;7.558;2022-11-11T03:26:01;9.00;99.90
18948;DHT22;9607;51.600;7.558;2022-11-11T03:28:26;9.00;99.90
18948;DHT22;9607;51.600;7.558;2022-11-11T03:30:53;9.00;99.90
18948;DHT22;9607;51.600;7.558;2022-11-11T03:33:21;9.00;99.90
18948;DHT22;9607;51.600;7.558;2022-11-11T03:35:48;9.00;99.90
18948;DHT22;9607;51.600;7.558;2022-11-11T03:38:15;9.10;99.90
18948;DHT22;9607;51.600;7.558;2022-11-11T03:40:41;9.10;99.90
18948;DHT22;9607;51.600;7.558;2022-11-11T03:43:10;9.10;99.90
18948;DHT22;9607;51.600;7.558;2022-11-11T03:45:37;9.10;99.90
18948;DHT22;9607;51.600;7.558;2022-11-11T03:48:04;9.10;99.90
18948;DHT22;9607;51.600;7.558;2022-11-11T03:50:33;9.10;99.90
18948;DHT22;9607;51.600;7.558;2022-11-11T03:53:00;9.20;99.90
18948;DHT22;9607;51.600;7.558;2022-11-11T03:55:28;9.20;99.90
18948;DHT22;9607;51.600;7.558;2022-11-11T03:57:55;9.20;99.90
18948;DHT22;9607;51.600;7.558;2022-11-11T04:00:23;9.20;99.90
18948;DHT22;9607;51.600;7.558;2022-11-11T04:02:50;9.20;99.90
18948;DHT22;9607;51.600;7.558;2022-11-11T04:05:36;9.20;99.90
18948;DHT22;9607;51.600;7.558;2022-11-11T04:08:21;9.30;99.90
18948;DHT22;9607;51.600;7.558;2022-11-11T04:11:09;9.20;99.90
18948;DHT22;9607;51.600;7.558;2022-11-11T04:13:38;9.20;99.90
18948;DHT22;9607;51.600;7.558;2022-11-11T04:16:22;9.10;99.90
18948;DHT22;9607;51.600;7.558;2022-11-11T04:18:49;9.10;99.90
18948;DHT22;9607;51.600;7.558;2022-11-11T04:21:35;9.00;99.90
18948;DHT22;9607;51.600;7.558;2022-11-11T04:24:12;9.10;99.90
18948;DHT22;9607;51.600;7.558;2022-11-11T04:26:58;9.00;99.90
18948;DHT22;9607;51.600;7.558;2022-11-11T04:29:25;9.00;99.90
18948;DHT22;9607;51.600;7.558;2022-11-11T04:31:54;9.00;99.90
18948;DHT22;9607;51.600;7.558;2022-11-11T04:34:39;9.00;99.90
18948;DHT22;9607;51.600;7.558;2022-11-11T04:37:07;8.90;99.90
18948;DHT22;9607;51.600;7.558;2022-11-11T04:39:34;8.90;99.90
18948;DHT22;9607;51.600;7.558;2022-11-11T04:42:19;8.90;99.90
18948;DHT22;9607;51.600;7.558;2022-11-11T04:44:46;8.80;99.90
18948;DHT22;9607;51.600;7.558;2022-11-11T04:47:30;8.80;99.90
18948;DHT22;9607;51.600;7.558;2022-11-11T04:49:57;8.80;99.90
18948;DHT22;9607;51.600;7.558;2022-11-11T04:52:25;8.80;99.90
18948;DHT22;9607;51.600;7.558;2022-11-11T04:54:53;8.70;99.90
18948;DHT22;9607;51.600;7.558;2022-11-11T04:57:38;8.70;99.90
18948;DHT22;9607;51.600;7.558;2022-11-11T05:00:07;8.70;99.90
18948;DHT22;9607;51.600;7.558;2022-11-11T05:02:34;8.70;99.90
18948;DHT22;9607;51.600;7.558;2022-11-11T05:05:19;8.70;99.90
18948;DHT22;9607;51.600;7.558;2022-11-11T05:07:47;8.70;99.90
18948;DHT22;9607;51.600;7.558;2022-11-11T05:10:32;8.70;99.90
18948;DHT22;9607;51.600;7.558;2022-11-11T05:12:58;8.80;99.90
18948;DHT22;9607;51.600;7.558;2022-11-11T05:15:41;8.70;99.90
18948;DHT22;9607;51.600;7.558;2022-11-11T05:18:25;8.70;99.90
18948;DHT22;9607;51.600;7.558;2022-11-11T05:21:11;8.70;99.90
18948;DHT22;9607;51.600;7.558;2022-11-11T05:23:50;8.60;99.90
18948;DHT22;9607;51.600;7.558;2022-11-11T05:26:35;8.60;99.90
18948;DHT22;9607;51.600;7.558;2022-11-11T05:29:02;8.60;99.90
18948;DHT22;9607;51.600;7.558;2022-11-11T05:31:29;8.60;99.90
18948;DHT22;9607;51.600;7.558;2022-11-11T05:33:56;8.60;99.90
18948;DHT22;9607;51.600;7.558;2022-11-11T05:36:23;8.60;99.90
18948;DHT22;9607;51.600;7.558;2022-11-11T05:38:51;8.70;99.90
18948;DHT22;9607;51.600;7.558;2022-11-11T05:41:18;8.70;99.90
18948;DHT22;9607;51.600;7.558;2022-11-11T05:43:44;8.70;99.90
18948;DHT22;9607;51.600;7.558;2022-11-11T05:46:11;8.70;99.90
18948;DHT22;9607;51.600;7.558;2022-11-11T05:48:38;8.80;99.90
18948;DHT22;9607;51.600;7.558;2022-11-11T05:51:25;8.80;99.90
18948;DHT22;9607;51.600;7.558;2022-11-11T05:53:56;8.90;99.90
18948;DHT22;9607;51.600;7.558;2022-11-11T05:56:23;8.90;99.90
18948;DHT22;9607;51.600;7.558;2022-11-11T05:58:50;8.90;99.90
18948;DHT22;9607;51.600;7.558;2022-11-11T06:01:17;8.90;99.90
18948;DHT22;9607;51.600;7.558;2022-11-11T06:03:44;9.00;99.90
18948;DHT22;9607;51.600;7.558;2022-11-11T06:06:11;8.90;99.90
18948;DHT22;9607;51.600;7.558;2022-11-11T06:08:38;8.90;99.90
18948;DHT22;9607;51.600;7.558;2022-11-11T06:11:07;8.80;99.90
18948;DHT22;9607;51.600;7.558;2022-11-11T06:13:34;8.80;99.90
18948;DHT22;9607;51.600;7.558;2022-11-11T06:16:02;8.80;99.90
18948;DHT22;9607;51.600;7.558;2022-11-11T06:18:29;8.70;99.90
18948;DHT22;9607;51.600;7.558;2022-11-11T06:20:57;8.70;99.90
18948;DHT22;9607;51.600;7.558;2022-11-11T06:23:24;8.70;99.90
18948;DHT22;9607;51.600;7.558;2022-11-11T06:28:18;8.60;99.90
18948;DHT22;9607;51.600;7.558;2022-11-11T06:30:45;8.60;99.90
18948;DHT22;9607;51.600;7.558;2022-11-11T06:33:12;8.70;99.90
18948;DHT22;9607;51.600;7.558;2022-11-11T06:35:42;8.70;99.90
18948;DHT22;9607;51.600;7.558;2022-11-11T06:38:09;8.70;99.90
18948;DHT22;9607;51.600;7.558;2022-11-11T06:40:36;8.70;99.90
18948;DHT22;9607;51.600;7.558;2022-11-11T06:43:03;8.80;99.90
18948;DHT22;9607;51.600;7.558;2022-11-11T06:45:31;8.80;99.90
18948;DHT22;9607;51.600;7.558;2022-11-11T06:47:59;8.80;99.90
18948;DHT22;9607;51.600;7.558;2022-11-11T06:50:26;8.80;99.90
18948;DHT22;9607;51.600;7.558;2022-11-11T06:52:53;8.90;99.90
18948;DHT22;9607;51.600;7.558;2022-11-11T06:55:20;8.90;99.90
18948;DHT22;9607;51.600;7.558;2022-11-11T06:57:47;8.90;99.90
18948;DHT22;9607;51.600;7.558;2022-11-11T07:00:15;8.90;99.90
18948;DHT22;9607;51.600;7.558;2022-11-11T07:02:43;8.80;99.90
18948;DHT22;9607;51.600;7.558;2022-11-11T07:05:11;8.80;99.90
18948;DHT22;9607;51.600;7.558;2022-11-11T07:07:37;8.80;99.90
18948;DHT22;9607;51.600;7.558;2022-11-11T07:10:05;8.80;99.90
18948;DHT22;9607;51.600;7.558;2022-11-11T07:12:34;8.80;99.90
18948;DHT22;9607;51.600;7.558;2022-11-11T07:15:01;8.80;99.90
18948;DHT22;9607;51.600;7.558;2022-11-11T07:17:28;8.80;99.90
18948;DHT22;9607;51.600;7.558;2022-11-11T07:19:58;8.80;99.90
18948;DHT22;9607;51.600;7.558;2022-11-11T07:22:25;8.80;99.90
18948;DHT22;9607;51.600;7.558;2022-11-11T07:24:52;8.80;99.90
18948;DHT22;9607;51.600;7.558;2022-11-11T07:27:19;8.80;99.90
18948;DHT22;9607;51.600;7.558;2022-11-11T07:29:45;8.80;99.90
18948;DHT22;9607;51.600;7.558;2022-11-11T07:32:13;8.80;99.90
18948;DHT22;9607;51.600;7.558;2022-11-11T07:34:41;8.90;99.90
18948;DHT22;9607;51.600;7.558;2022-11-11T07:37:10;8.90;99.90
18948;DHT22;9607;51.600;7.558;2022-11-11T07:39:37;8.90;99.90
18948;DHT22;9607;51.600;7.558;2022-11-11T07:42:03;9.00;99.90
18948;DHT22;9607;51.600;7.558;2022-11-11T07:44:30;9.00;99.90
18948;DHT22;9607;51.600;7.558;2022-11-11T07:46:57;9.10;99.90
18948;DHT22;9607;51.600;7.558;2022-11-11T07:49:24;9.20;99.90
18948;DHT22;9607;51.600;7.558;2022-11-11T07:51:51;9.20;99.90
18948;DHT22;9607;51.600;7.558;2022-11-11T07:54:19;9.30;99.90
18948;DHT22;9607;51.600;7.558;2022-11-11T07:56:45;9.40;99.90
18948;DHT22;9607;51.600;7.558;2022-11-11T07:59:12;9.50;99.90
18948;DHT22;9607;51.600;7.558;2022-11-11T08:01:39;9.50;99.90
18948;DHT22;9607;51.600;7.558;2022-11-11T08:04:06;9.60;99.90
18948;DHT22;9607;51.600;7.558;2022-11-11T08:06:34;9.70;99.90
18948;DHT22;9607;51.600;7.558;2022-11-11T08:09:01;9.80;99.90
18948;DHT22;9607;51.600;7.558;2022-11-11T08:11:29;9.80;99.90
18948;DHT22;9607;51.600;7.558;2022-11-11T08:14:13;9.90;99.90
18948;DHT22;9607;51.600;7.558;2022-11-11T08:16:40;10.10;99.90
18948;DHT22;9607;51.600;7.558;2022-11-11T08:19:07;10.20;99.90
18948;DHT22;9607;51.600;7.558;2022-11-11T08:21:34;10.20;99.90
18948;DHT22;9607;51.600;7.558;2022-11-11T08:24:01;10.30;99.90
18948;DHT22;9607;51.600;7.558;2022-11-11T08:26:29;10.50;99.90
18948;DHT22;9607;51.600;7.558;2022-11-11T08:28:56;10.60;99.90
18948;DHT22;9607;51.600;7.558;2022-11-11T08:31:23;10.70;99.90
18948;DHT22;9607;51.600;7.558;2022-11-11T08:33:51;10.80;99.90
18948;DHT22;9607;51.600;7.558;2022-11-11T08:36:18;10.90;99.90
18948;DHT22;9607;51.600;7.558;2022-11-11T08:38:44;11.00;99.90
18948;DHT22;9607;51.600;7.558;2022-11-11T08:41:11;11.20;99.90
18948;DHT22;9607;51.600;7.558;2022-11-11T08:43:39;11.30;99.90
18948;DHT22;9607;51.600;7.558;2022-11-11T08:46:06;11.40;99.90
18948;DHT22;9607;51.600;7.558;2022-11-11T08:48:33;11.50;99.90
18948;DHT22;9607;51.600;7.558;2022-11-11T08:51:01;11.60;99.90
18948;DHT22;9607;51.600;7.558;2022-11-11T08:53:27;11.70;99.90
18948;DHT22;9607;51.600;7.558;2022-11-11T08:55:54;11.80;99.90
18948;DHT22;9607;51.600;7.558;2022-11-11T08:58:21;11.90;99.90
18948;DHT22;9607;51.600;7.558;2022-11-11T09:00:49;12.00;99.90
18948;DHT22;9607;51.600;7.558;2022-11-11T09:03:16;12.10;99.90
18948;DHT22;9607;51.600;7.558;2022-11-11T09:05:43;12.10;99.90
18948;DHT22;9607;51.600;7.558;2022-11-11T09:08:12;12.30;99.90
18948;DHT22;9607;51.600;7.558;2022-11-11T09:10:39;12.30;99.90
18948;DHT22;9607;51.600;7.558;2022-11-11T09:13:06;12.30;99.90
18948;DHT22;9607;51.600;7.558;2022-11-11T09:15:34;12.40;99.90
18948;DHT22;9607;51.600;7.558;2022-11-11T09:18:02;12.50;99.90
18948;DHT22;9607;51.600;7.558;2022-11-11T09:20:29;12.50;99.90
18948;DHT22;9607;51.600;7.558;2022-11-11T09:22:56;12.60;99.90
18948;DHT22;9607;51.600;7.558;2022-11-11T09:25:23;12.70;99.90
18948;DHT22;9607;51.600;7.558;2022-11-11T09:27:53;12.70;99.90
18948;DHT22;9607;51.600;7.558;2022-11-11T09:30:20;12.80;99.90
18948;DHT22;9607;51.600;7.558;2022-11-11T09:32:47;12.90;99.90
18948;DHT22;9607;51.600;7.558;2022-11-11T09:35:16;13.00;99.90
18948;DHT22;9607;51.600;7.558;2022-11-11T09:37:52;13.00;99.90
18948;DHT22;9607;51.600;7.558;2022-11-11T09:40:20;13.10;99.90
18948;DHT22;9607;51.600;7.558;2022-11-11T09:42:55;13.20;99.90
18948;DHT22;9607;51.600;7.558;2022-11-11T09:45:28;13.30;99.90
18948;DHT22;9607;51.600;7.558;2022-11-11T09:48:04;13.30;99.90
18948;DHT22;9607;51.600;7.558;2022-11-11T09:50:36;13.40;99.90
18948;DHT22;9607;51.600;7.558;2022-11-11T09:53:10;13.50;99.90
18948;DHT22;9607;51.600;7.558;2022-11-11T09:55:41;13.50;99.90
18948;DHT22;9607;51.600;7.558;2022-11-11T09:58:13;13.60;99.90
18948;DHT22;9607;51.600;7.558;2022-11-11T10:00:45;13.70;99.90
18948;DHT22;9607;51.600;7.558;2022-11-11T10:03:17;13.70;99.90
18948;DHT22;9607;51.600;7.558;2022-11-11T10:05:50;13.70;99.90
18948;DHT22;9607;51.600;7.558;2022-11-11T10:08:21;13.70;99.90
18948;DHT22;9607;51.600;7.558;2022-11-11T10:10:52;13.70;99.90
18948;DHT22;9607;51.600;7.558;2022-11-11T10:13:23;13.70;99.90
18948;DHT22;9607;51.600;7.558;2022-11-11T10:15:59;13.70;99.90
18948;DHT22;9607;51.600;7.558;2022-11-11T10:18:41;13.80;99.90
18948;DHT22;9607;51.600;7.558;2022-11-11T10:21:15;13.80;99.90
18948;DHT22;9607;51.600;7.558;2022-11-11T10:23:48;13.90;99.90
18948;DHT22;9607;51.600;7.558;2022-11-11T10:26:18;13.90;99.90
18948;DHT22;9607;51.600;7.558;2022-11-11T10:28:49;13.90;99.90
18948;DHT22;9607;51.600;7.558;2022-11-11T10:31:19;13.90;99.90
18948;DHT22;9607;51.600;7.558;2022-11-11T10:33:50;13.90;99.90
18948;DHT22;9607;51.600;7.558;2022-11-11T10:36:22;14.00;99.90
18948;DHT22;9607;51.600;7.558;2022-11-11T10:38:53;14.10;99.90
18948;DHT22;9607;51.600;7.558;2022-11-11T10:41:26;14.10;99.90
18948;DHT22;9607;51.600;7.558;2022-11-11T10:43:55;14.10;99.90
18948;DHT22;9607;51.600;7.558;2022-11-11T10:46:25;14.10;99.90
18948;DHT22;9607;51.600;7.558;2022-11-11T10:48:56;14.20;99.90
18948;DHT22;9607;51.600;7.558;2022-11-11T10:51:29;14.20;99.90
18948;DHT22;9607;51.600;7.558;2022-11-11T10:54:04;14.20;99.90
18948;DHT22;9607;51.600;7.558;2022-11-11T10:56:36;14.20;99.90
18948;DHT22;9607;51.600;7.558;2022-11-11T10:59:13;14.30;99.90
18948;DHT22;9607;51.600;7.558;2022-11-11T11:01:47;14.20;99.90
18948;DHT22;9607;51.600;7.558;2022-11-11T11:04:21;14.30;99.90
18948;DHT22;9607;51.600;7.558;2022-11-11T11:06:54;14.40;99.90
18948;DHT22;9607;51.600;7.558;2022-11-11T11:09:23;14.40;99.90
18948;DHT22;9607;51.600;7.558;2022-11-11T11:11:54;14.50;99.90
18948;DHT22;9607;51.600;7.558;2022-11-11T11:14:28;14.50;99.90
18948;DHT22;9607;51.600;7.558;2022-11-11T11:16:58;14.60;99.90
18948;DHT22;9607;51.600;7.558;2022-11-11T11:19:26;14.60;99.90
18948;DHT22;9607;51.600;7.558;2022-11-11T11:21:56;14.70;99.90
18948;DHT22;9607;51.600;7.558;2022-11-11T11:24:25;14.80;99.90
18948;DHT22;9607;51.600;7.558;2022-11-11T11:26:54;14.80;99.90
18948;DHT22;9607;51.600;7.558;2022-11-11T11:29:29;14.90;99.90
18948;DHT22;9607;51.600;7.558;2022-11-11T11:32:11;15.00;99.90
18948;DHT22;9607;51.600;7.558;2022-11-11T11:34:43;15.00;99.90
18948;DHT22;9607;51.600;7.558;2022-11-11T11:37:12;15.10;99.90
18948;DHT22;9607;51.600;7.558;2022-11-11T11:39:39;15.20;99.90
18948;DHT22;9607;51.600;7.558;2022-11-11T11:42:06;15.20;99.90
18948;DHT22;9607;51.600;7.558;2022-11-11T11:44:34;15.30;99.90
18948;DHT22;9607;51.600;7.558;2022-11-11T11:47:13;15.40;98.40
18948;DHT22;9607;51.600;7.558;2022-11-11T11:49:53;15.40;98.30
18948;DHT22;9607;51.600;7.558;2022-11-11T11:52:33;15.50;97.40
18948;DHT22;9607;51.600;7.558;2022-11-11T11:55:06;15.60;97.70
18948;DHT22;9607;51.600;7.558;2022-11-11T11:57:46;15.60;97.40
18948;DHT22;9607;51.600;7.558;2022-11-11T12:00:19;15.70;97.70
18948;DHT22;9607;51.600;7.558;2022-11-11T12:03:12;15.90;97.00
18948;DHT22;9607;51.600;7.558;2022-11-11T12:05:44;16.20;95.80
18948;DHT22;9607;51.600;7.558;2022-11-11T12:08:26;16.40;95.00
18948;DHT22;9607;51.600;7.558;2022-11-11T12:11:03;16.50;93.30
18948;DHT22;9607;51.600;7.558;2022-11-11T12:13:42;16.50;93.90
18948;DHT22;9607;51.600;7.558;2022-11-11T12:16:21;16.50;93.50
18948;DHT22;9607;51.600;7.558;2022-11-11T12:19:06;16.50;92.20
18948;DHT22;9607;51.600;7.558;2022-11-11T12:21:40;16.40;92.40
18948;DHT22;9607;51.600;7.558;2022-11-11T12:24:21;16.40;92.40
18948;DHT22;9607;51.600;7.558;2022-11-11T12:26:59;16.30;91.10
18948;DHT22;9607;51.600;7.558;2022-11-11T12:29:38;16.20;91.50
18948;DHT22;9607;51.600;7.558;2022-11-11T12:32:25;16.20;91.70
18948;DHT22;9607;51.600;7.558;2022-11-11T12:35:14;16.20;90.60
18948;DHT22;9607;51.600;7.558;2022-11-11T12:37:48;16.20;90.60
18948;DHT22;9607;51.600;7.558;2022-11-11T12:40:29;16.30;89.30
18948;DHT22;9607;51.600;7.558;2022-11-11T12:43:10;16.20;87.30
18948;DHT22;9607;51.600;7.558;2022-11-11T12:45:46;16.20;87.70
18948;DHT22;9607;51.600;7.558;2022-11-11T12:48:27;16.10;87.50
18948;DHT22;9607;51.600;7.558;2022-11-11T12:51:04;16.10;88.40
18948;DHT22;9607;51.600;7.558;2022-11-11T12:53:39;16.10;88.90
18948;DHT22;9607;51.600;7.558;2022-11-11T12:56:17;16.10;86.60
18948;DHT22;9607;51.600;7.558;2022-11-11T12:58:50;16.10;86.70
18948;DHT22;9607;51.600;7.558;2022-11-11T13:01:27;16.10;87.50
18948;DHT22;9607;51.600;7.558;2022-11-11T13:04:09;16.10;87.30
18948;DHT22;9607;51.600;7.558;2022-11-11T13:07:08;16.10;88.00
18948;DHT22;9607;51.600;7.558;2022-11-11T13:09:55;16.10;86.40
18948;DHT22;9607;51.600;7.558;2022-11-11T13:12:30;16.00;85.90
18948;DHT22;9607;51.600;7.558;2022-11-11T13:15:03;16.00;87.30
18948;DHT22;9607;51.600;7.558;2022-11-11T13:17:31;16.00;85.80
18948;DHT22;9607;51.600;7.558;2022-11-11T13:20:01;16.00;85.60
18948;DHT22;9607;51.600;7.558;2022-11-11T13:22:30;16.00;86.20
18948;DHT22;9607;51.600;7.558;2022-11-11T13:25:02;16.00;85.60
18948;DHT22;9607;51.600;7.558;2022-11-11T13:27:36;16.00;86.50
18948;DHT22;9607;51.600;7.558;2022-11-11T13:30:20;16.00;84.40
18948;DHT22;9607;51.600;7.558;2022-11-11T13:32:59;16.00;84.30
18948;DHT22;9607;51.600;7.558;2022-11-11T13:35:29;16.00;84.70
18948;DHT22;9607;51.600;7.558;2022-11-11T13:37:57;16.00;84.30
18948;DHT22;9607;51.600;7.558;2022-11-11T13:40:34;16.00;84.70
18948;DHT22;9607;51.600;7.558;2022-11-11T13:43:03;16.00;83.30
18948;DHT22;9607;51.600;7.558;2022-11-11T13:45:35;16.00;83.60
18948;DHT22;9607;51.600;7.558;2022-11-11T13:48:04;15.90;83.50
18948;DHT22;9607;51.600;7.558;2022-11-11T13:50:34;16.00;84.20
18948;DHT22;9607;51.600;7.558;2022-11-11T13:53:04;16.00;82.70
18948;DHT22;9607;51.600;7.558;2022-11-11T13:55:34;16.00;83.10
18948;DHT22;9607;51.600;7.558;2022-11-11T13:58:04;16.10;83.40
18948;DHT22;9607;51.600;7.558;2022-11-11T14:00:34;16.10;82.70
18948;DHT22;9607;51.600;7.558;2022-11-11T14:03:33;16.30;81.90
18948;DHT22;9607;51.600;7.558;2022-11-11T14:09:09;16.50;81.50
18948;DHT22;9607;51.600;7.558;2022-11-11T14:11:36;16.80;82.10
18948;DHT22;9607;51.600;7.558;2022-11-11T14:17:12;17.40;80.10
18948;DHT22;9607;51.600;7.558;2022-11-11T14:19:40;17.60;79.50
18948;DHT22;9607;51.600;7.558;2022-11-11T14:22:27;17.60;79.70
18948;DHT22;9607;51.600;7.558;2022-11-11T14:25:09;17.60;80.40
18948;DHT22;9607;51.600;7.558;2022-11-11T14:27:43;17.40;81.30
18948;DHT22;9607;51.600;7.558;2022-11-11T14:30:36;17.40;81.50
18948;DHT22;9607;51.600;7.558;2022-11-11T14:33:10;17.20;82.50
18948;DHT22;9607;51.600;7.558;2022-11-11T14:35:46;17.20;83.50
18948;DHT22;9607;51.600;7.558;2022-11-11T14:38:26;17.20;84.30
18948;DHT22;9607;51.600;7.558;2022-11-11T14:40:55;17.10;83.90
18948;DHT22;9607;51.600;7.558;2022-11-11T14:43:36;17.00;84.30
18948;DHT22;9607;51.600;7.558;2022-11-11T14:46:06;16.80;84.60
18948;DHT22;9607;51.600;7.558;2022-11-11T14:48:58;16.70;85.80
18948;DHT22;9607;51.600;7.558;2022-11-11T14:51:42;16.50;86.80
18948;DHT22;9607;51.600;7.558;2022-11-11T14:57:06;16.10;89.20
18948;DHT22;9607;51.600;7.558;2022-11-11T14:59:34;16.00;89.60
18948;DHT22;9607;51.600;7.558;2022-11-11T15:02:01;15.80;90.00
18948;DHT22;9607;51.600;7.558;2022-11-11T15:04:37;15.70;90.30
18948;DHT22;9607;51.600;7.558;2022-11-11T15:07:05;15.50;90.70
18948;DHT22;9607;51.600;7.558;2022-11-11T15:10:02;15.40;90.90
18948;DHT22;9607;51.600;7.558;2022-11-11T15:12:42;15.20;90.90
18948;DHT22;9607;51.600;7.558;2022-11-11T15:15:14;15.10;91.10
18948;DHT22;9607;51.600;7.558;2022-11-11T15:17:56;15.00;91.30
18948;DHT22;9607;51.600;7.558;2022-11-11T15:20:40;14.80;91.80
18948;DHT22;9607;51.600;7.558;2022-11-11T15:23:16;14.70;92.50
18948;DHT22;9607;51.600;7.558;2022-11-11T15:25:55;14.60;92.90
18948;DHT22;9607;51.600;7.558;2022-11-11T15:28:52;14.40;93.30
18948;DHT22;9607;51.600;7.558;2022-11-11T15:31:30;14.30;93.90
18948;DHT22;9607;51.600;7.558;2022-11-11T15:34:06;14.10;94.80
18948;DHT22;9607;51.600;7.558;2022-11-11T15:36:49;13.90;95.50
18948;DHT22;9607;51.600;7.558;2022-11-11T15:39:20;13.80;95.80
18948;DHT22;9607;51.600;7.558;2022-11-11T15:41:50;13.60;96.80
18948;DHT22;9607;51.600;7.558;2022-11-11T15:44:20;13.50;97.40
18948;DHT22;9607;51.600;7.558;2022-11-11T15:46:48;13.30;98.00
18948;DHT22;9607;51.600;7.558;2022-11-11T15:49:36;13.20;98.60
18948;DHT22;9607;51.600;7.558;2022-11-11T15:52:10;13.10;99.60
18948;DHT22;9607;51.600;7.558;2022-11-11T15:54:49;12.90;99.90
18948;DHT22;9607;51.600;7.558;2022-11-11T15:57:24;12.80;99.90
18948;DHT22;9607;51.600;7.558;2022-11-11T15:59:51;12.70;99.90
18948;DHT22;9607;51.600;7.558;2022-11-11T16:02:20;12.60;99.90
18948;DHT22;9607;51.600;7.558;2022-11-11T16:04:48;12.50;99.90
18948;DHT22;9607;51.600;7.558;2022-11-11T16:07:20;12.40;99.90
18948;DHT22;9607;51.600;7.558;2022-11-11T16:09:47;12.30;99.90
18948;DHT22;9607;51.600;7.558;2022-11-11T16:12:18;12.20;99.90
18948;DHT22;9607;51.600;7.558;2022-11-11T16:14:47;12.10;99.90
18948;DHT22;9607;51.600;7.558;2022-11-11T16:17:15;12.00;99.90
18948;DHT22;9607;51.600;7.558;2022-11-11T16:19:43;11.90;99.90
18948;DHT22;9607;51.600;7.558;2022-11-11T16:22:16;11.80;99.90
18948;DHT22;9607;51.600;7.558;2022-11-11T16:24:46;11.70;99.90
18948;DHT22;9607;51.600;7.558;2022-11-11T16:27:16;11.60;99.90
18948;DHT22;9607;51.600;7.558;2022-11-11T16:29:44;11.60;99.90
18948;DHT22;9607;51.600;7.558;2022-11-11T16:32:34;11.50;99.90
18948;DHT22;9607;51.600;7.558;2022-11-11T16:35:22;11.40;99.90
18948;DHT22;9607;51.600;7.558;2022-11-11T16:37:50;11.30;99.90